createdAt,value
2018-05-31T00:00:06.783Z,100488.25
2018-05-31T00:02:34.452Z,100484.19
2018-05-31T00:05:02.090Z,100489.89
2018-05-31T00:07:29.674Z,100479.73
2018-05-31T00:09:57.221Z,100476.19
2018-05-31T00:12:24.868Z,100473.71
2018-05-31T00:14:52.419Z,100473.75
2018-05-31T00:17:20.018Z,100483.70
2018-05-31T00:19:47.601Z,100478.63
2018-05-31T00:22:15.210Z,100481.87
2018-05-31T00:24:42.815Z,100491.06
2018-05-31T00:27:10.363Z,100490.65
2018-05-31T00:29:37.883Z,100493.09
2018-05-31T00:32:05.405Z,100494.37
2018-05-31T00:34:33.190Z,100491.89
2018-05-31T00:37:00.748Z,100490.14
2018-05-31T00:39:28.307Z,100487.47
2018-05-31T00:41:55.876Z,100484.39
2018-05-31T00:44:23.423Z,100482.41
2018-05-31T00:46:50.982Z,100480.78
2018-05-31T00:49:18.562Z,100482.52
2018-05-31T00:51:46.217Z,100490.13
2018-05-31T00:54:13.775Z,100492.52
2018-05-31T00:56:41.349Z,100488.77
2018-05-31T00:59:08.895Z,100484.47
2018-05-31T01:01:36.476Z,100483.52
2018-05-31T01:04:04.118Z,100482.64
2018-05-31T01:06:31.684Z,100476.28
2018-05-31T01:08:59.236Z,100470.55
2018-05-31T01:11:26.817Z,100471.86
2018-05-31T01:13:54.391Z,100469.62
2018-05-31T01:16:21.994Z,100470.48
2018-05-31T01:18:50.423Z,100477.63
2018-05-31T01:21:17.936Z,100472.75
2018-05-31T01:23:45.443Z,100468.63
2018-05-31T01:26:12.986Z,100461.30
2018-05-31T01:28:40.517Z,100469.75
2018-05-31T01:31:08.083Z,100476.41
2018-05-31T01:33:35.599Z,100479.47
2018-05-31T01:36:03.131Z,100474.75
2018-05-31T01:38:34.012Z,100469.22
2018-05-31T01:41:01.569Z,100473.22
2018-05-31T01:43:29.090Z,100467.11
2018-05-31T01:45:56.624Z,100467.20
2018-05-31T01:48:24.149Z,100473.80
2018-05-31T01:50:51.655Z,100483.28
2018-05-31T01:53:19.186Z,100484.95
2018-05-31T01:55:46.730Z,100483.87
2018-05-31T01:58:14.267Z,100485.47
2018-05-31T02:00:41.801Z,100478.92
2018-05-31T02:03:10.442Z,100476.28
2018-05-31T02:05:37.997Z,100473.56
2018-05-31T02:08:06.090Z,100473.16
2018-05-31T02:10:33.617Z,100470.55
2018-05-31T02:13:01.153Z,100469.04
2018-05-31T02:15:28.717Z,100472.33
2018-05-31T02:17:56.272Z,100474.31
2018-05-31T02:20:23.810Z,100473.50
2018-05-31T02:22:51.365Z,100468.25
2018-05-31T02:25:18.931Z,100468.73
2018-05-31T02:27:46.454Z,100459.20
2018-05-31T02:30:13.979Z,100462.21
2018-05-31T02:32:41.526Z,100467.50
2018-05-31T02:35:09.051Z,100468.55
2018-05-31T02:37:36.592Z,100471.08
2018-05-31T02:40:04.110Z,100476.03
2018-05-31T02:42:31.631Z,100474.14
2018-05-31T02:44:59.173Z,100474.86
2018-05-31T02:47:26.744Z,100475.50
2018-05-31T02:49:54.309Z,100476.63
2018-05-31T02:52:22.241Z,100482.73
2018-05-31T02:54:49.810Z,100480.09
2018-05-31T02:57:17.347Z,100476.58
2018-05-31T02:59:44.899Z,100474.43
2018-05-31T03:02:12.407Z,100472.80
2018-05-31T03:04:39.934Z,100470.20
2018-05-31T03:07:07.479Z,100470.33
2018-05-31T03:09:35.070Z,100473.58
2018-05-31T03:12:02.658Z,100470.51
2018-05-31T03:14:30.204Z,100469.28
2018-05-31T03:16:57.737Z,100470.20
2018-05-31T03:19:25.295Z,100477.40
2018-05-31T03:21:52.803Z,100472.62
2018-05-31T03:24:20.349Z,100480.28
2018-05-31T03:26:47.895Z,100482.98
2018-05-31T03:29:15.474Z,100482.11
2018-05-31T03:31:43.046Z,100480.71
2018-05-31T03:34:10.599Z,100483.66
2018-05-31T03:36:38.184Z,100486.06
2018-05-31T03:39:05.737Z,100489.89
2018-05-31T03:41:33.242Z,100486.18
2018-05-31T03:44:00.747Z,100482.69
2018-05-31T03:46:28.269Z,100479.88
2018-05-31T03:48:55.788Z,100490.77
2018-05-31T03:51:23.330Z,100487.66
2018-05-31T03:53:50.840Z,100487.66
2018-05-31T03:56:18.355Z,100482.27
2018-05-31T03:58:45.871Z,100483.59
2018-05-31T04:01:13.475Z,100481.16
2018-05-31T04:03:40.989Z,100482.70
2018-05-31T04:06:08.531Z,100479.81
2018-05-31T04:08:36.092Z,100471.73
2018-05-31T04:11:03.611Z,100469.51
2018-05-31T04:13:31.164Z,100468.84
2018-05-31T04:15:58.682Z,100465.31
2018-05-31T04:18:26.446Z,100476.55
2018-05-31T04:20:53.981Z,100473.09
2018-05-31T04:23:21.509Z,100480.23
2018-05-31T04:25:49.053Z,100471.72
2018-05-31T04:28:16.593Z,100472.36
2018-05-31T04:30:44.289Z,100477.08
2018-05-31T04:33:11.810Z,100472.44
2018-05-31T04:35:39.375Z,100474.98
2018-05-31T04:38:06.895Z,100472.11
2018-05-31T04:40:34.411Z,100471.37
2018-05-31T04:43:01.938Z,100468.53
2018-05-31T04:45:29.450Z,100460.75
2018-05-31T04:47:57.008Z,100463.36
2018-05-31T04:50:24.555Z,100454.98
2018-05-31T04:52:52.067Z,100456.06
2018-05-31T04:55:19.617Z,100456.49
2018-05-31T04:57:47.149Z,100457.66
2018-05-31T05:00:14.690Z,100462.09
2018-05-31T05:02:42.207Z,100467.09
2018-05-31T05:05:09.933Z,100476.75
2018-05-31T05:07:37.477Z,100480.05
2018-05-31T05:10:04.984Z,100476.83
2018-05-31T05:12:32.565Z,100478.97
2018-05-31T05:15:00.059Z,100483.59
2018-05-31T05:17:27.579Z,100480.31
2018-05-31T05:19:55.145Z,100485.12
2018-05-31T05:22:22.701Z,100487.00
2018-05-31T05:24:50.262Z,100485.56
2018-05-31T05:27:17.799Z,100490.99
2018-05-31T05:29:45.322Z,100484.46
2018-05-31T05:32:12.854Z,100491.80
2018-05-31T05:34:40.393Z,100490.99
2018-05-31T05:37:07.918Z,100486.23
2018-05-31T05:39:35.477Z,100483.44
2018-05-31T05:42:03.008Z,100493.58
2018-05-31T05:44:30.537Z,100487.95
2018-05-31T05:46:58.074Z,100493.10
2018-05-31T05:49:26.567Z,100492.72
2018-05-31T05:51:54.091Z,100489.86
2018-05-31T05:54:21.638Z,100489.14
2018-05-31T05:56:49.169Z,100487.23
2018-05-31T05:59:16.756Z,100488.84
2018-05-31T06:01:44.270Z,100482.57
2018-05-31T06:04:11.815Z,100486.20
2018-05-31T06:06:39.515Z,100481.33
2018-05-31T06:09:07.051Z,100486.26
2018-05-31T06:11:34.572Z,100490.48
2018-05-31T06:14:02.098Z,100486.35
2018-05-31T06:16:29.606Z,100494.19
2018-05-31T06:18:57.625Z,100496.34
2018-05-31T06:21:24.679Z,100495.33
2018-05-31T06:23:52.201Z,100495.56
2018-05-31T06:26:19.802Z,100497.03
2018-05-31T06:28:47.234Z,100496.92
2018-05-31T06:31:14.761Z,100500.20
2018-05-31T06:33:42.281Z,100495.92
2018-05-31T06:36:09.791Z,100501.27
2018-05-31T06:38:37.318Z,100492.30
2018-05-31T06:41:04.842Z,100497.04
2018-05-31T06:43:32.385Z,100498.55
2018-05-31T06:45:59.915Z,100490.28
2018-05-31T06:48:27.429Z,100492.20
2018-05-31T06:50:54.960Z,100490.45
2018-05-31T06:53:22.483Z,100496.95
2018-05-31T06:55:50.002Z,100492.55
2018-05-31T06:58:17.527Z,100490.80
2018-05-31T07:00:45.085Z,100499.38
2018-05-31T07:03:12.613Z,100499.67
2018-05-31T07:05:40.357Z,100498.13
2018-05-31T07:08:07.905Z,100491.96
2018-05-31T07:10:35.417Z,100494.03
2018-05-31T07:13:02.933Z,100497.32
2018-05-31T07:15:30.464Z,100492.48
2018-05-31T07:17:57.948Z,100489.44
2018-05-31T07:20:25.520Z,100486.45
2018-05-31T07:22:53.053Z,100488.87
2018-05-31T07:25:20.566Z,100488.23
2018-05-31T07:27:48.067Z,100494.26
2018-05-31T07:30:15.570Z,100491.63
2018-05-31T07:32:43.290Z,100493.00
2018-05-31T07:35:10.815Z,100493.97
2018-05-31T07:37:38.325Z,100496.81
2018-05-31T07:40:05.878Z,100499.14
2018-05-31T07:42:33.420Z,100496.06
2018-05-31T07:45:00.926Z,100495.65
2018-05-31T07:47:28.436Z,100499.32
2018-05-31T07:49:56.107Z,100497.00
2018-05-31T07:52:23.602Z,100495.36
2018-05-31T07:54:51.126Z,100496.73
2018-05-31T07:57:18.666Z,100494.77
2018-05-31T07:59:46.159Z,100496.36
2018-05-31T08:02:13.675Z,100497.67
2018-05-31T08:04:41.174Z,100491.89
2018-05-31T08:07:08.692Z,100500.67
2018-05-31T08:09:36.199Z,100501.33
2018-05-31T08:12:03.713Z,100509.47
2018-05-31T08:14:31.297Z,100504.12
2018-05-31T08:16:58.832Z,100499.14
2018-05-31T08:19:26.350Z,100502.00
2018-05-31T08:21:53.875Z,100504.44
2018-05-31T08:24:21.400Z,100507.67
2018-05-31T08:26:48.911Z,100505.45
2018-05-31T08:29:16.431Z,100507.16
2018-05-31T08:31:44.002Z,100513.19
2018-05-31T08:34:11.649Z,100511.03
2018-05-31T08:36:39.142Z,100504.91
2018-05-31T08:39:06.653Z,100510.75
2018-05-31T08:41:34.159Z,100504.09
2018-05-31T08:44:01.731Z,100503.70
2018-05-31T08:46:29.229Z,100501.19
2018-05-31T08:48:56.727Z,100507.16
2018-05-31T08:51:24.285Z,100504.91
2018-05-31T08:53:51.806Z,100501.26
2018-05-31T08:56:19.347Z,100509.16
2018-05-31T08:58:46.834Z,100501.20
2018-05-31T09:01:14.329Z,100502.48
2018-05-31T09:03:41.822Z,100503.34
2018-05-31T09:06:09.338Z,100509.27
2018-05-31T09:08:36.857Z,100517.25
2018-05-31T09:11:04.369Z,100512.59
2018-05-31T09:13:31.989Z,100508.55
2018-05-31T09:15:59.494Z,100510.55
2018-05-31T09:18:27.021Z,100503.94
2018-05-31T09:20:54.515Z,100512.72
2018-05-31T09:23:22.041Z,100504.41
2018-05-31T09:25:49.554Z,100504.75
2018-05-31T09:28:17.098Z,100500.53
2018-05-31T09:30:44.609Z,100508.67
2018-05-31T09:33:12.127Z,100503.95
2018-05-31T09:35:39.627Z,100508.98
2018-05-31T09:38:07.119Z,100501.77
2018-05-31T09:40:34.636Z,100503.23
2018-05-31T09:43:02.166Z,100501.49
2018-05-31T09:45:29.670Z,100505.03
2018-05-31T09:47:57.175Z,100502.19
2018-05-31T09:50:24.690Z,100512.04
2018-05-31T09:52:52.179Z,100511.34
2018-05-31T09:55:19.700Z,100507.58
2018-05-31T09:57:47.191Z,100505.86
2018-05-31T10:00:16.655Z,100508.97
2018-05-31T10:02:44.155Z,100508.57
2018-05-31T10:05:11.719Z,100510.30
2018-05-31T10:07:39.223Z,100507.53
2018-05-31T10:10:06.735Z,100509.75
2018-05-31T10:12:34.236Z,100514.40
2018-05-31T10:15:01.897Z,100516.94
2018-05-31T10:17:29.412Z,100516.23
2018-05-31T10:19:56.983Z,100513.19
2018-05-31T10:22:24.526Z,100507.17
2018-05-31T10:24:52.028Z,100515.77
2018-05-31T10:27:19.511Z,100508.06
2018-05-31T10:29:47.022Z,100508.14
2018-05-31T10:32:14.524Z,100510.14
2018-05-31T10:34:42.040Z,100505.78
2018-05-31T10:37:09.570Z,100503.58
2018-05-31T10:39:37.075Z,100505.94
2018-05-31T10:42:04.592Z,100495.95
2018-05-31T10:44:32.130Z,100500.25
2018-05-31T10:46:59.627Z,100501.08
2018-05-31T10:49:27.152Z,100493.97
2018-05-31T10:51:54.662Z,100501.21
2018-05-31T10:54:22.170Z,100498.17
2018-05-31T10:56:49.673Z,100490.69
2018-05-31T10:59:17.266Z,100491.66
2018-05-31T11:01:44.847Z,100486.41
2018-05-31T11:04:12.360Z,100486.72
2018-05-31T11:06:39.874Z,100500.09
2018-05-31T11:09:07.399Z,100497.20
2018-05-31T11:11:34.916Z,100498.70
2018-05-31T11:14:02.439Z,100494.03
2018-05-31T11:16:29.985Z,100493.48
2018-05-31T11:18:57.531Z,100486.03
2018-05-31T11:21:25.053Z,100481.89
2018-05-31T11:23:52.564Z,100483.27
2018-05-31T11:26:20.153Z,100477.59
2018-05-31T11:28:47.659Z,100471.02
2018-05-31T11:31:15.152Z,100475.70
2018-05-31T11:33:42.681Z,100474.84
2018-05-31T11:36:10.190Z,100475.88
2018-05-31T11:38:37.737Z,100468.32
2018-05-31T11:41:05.247Z,100470.46
2018-05-31T11:43:32.757Z,100473.09
2018-05-31T11:46:00.282Z,100480.77
2018-05-31T11:48:27.797Z,100486.61
2018-05-31T11:50:55.303Z,100480.41
2018-05-31T11:53:22.827Z,100482.13
2018-05-31T11:55:50.523Z,100483.45
2018-05-31T11:58:18.050Z,100473.91
2018-05-31T12:00:45.561Z,100477.41
2018-05-31T12:03:13.062Z,100479.73
2018-05-31T12:05:40.567Z,100480.27
2018-05-31T12:08:08.123Z,100478.91
2018-05-31T12:10:35.626Z,100467.58
2018-05-31T12:13:03.135Z,100461.78
2018-05-31T12:15:30.655Z,100466.02
2018-05-31T12:17:58.159Z,100476.23
2018-05-31T12:20:25.658Z,100470.24
2018-05-31T12:22:53.197Z,100468.41
2018-05-31T12:25:20.715Z,100460.67
2018-05-31T12:27:48.330Z,100461.78
2018-05-31T12:30:15.863Z,100470.39
2018-05-31T12:32:43.355Z,100469.23
2018-05-31T12:35:10.873Z,100463.66
2018-05-31T12:37:38.419Z,100461.68
2018-05-31T12:40:05.928Z,100456.64
2018-05-31T12:42:33.450Z,100456.35
2018-05-31T12:45:00.993Z,100454.59
2018-05-31T12:47:28.521Z,100448.16
2018-05-31T12:49:56.031Z,100451.31
2018-05-31T12:52:23.520Z,100451.52
2018-05-31T12:54:51.012Z,100450.78
2018-05-31T12:57:18.551Z,100444.76
2018-05-31T12:59:46.115Z,100442.93
2018-05-31T13:02:13.607Z,100445.95
2018-05-31T13:04:41.130Z,100446.30
2018-05-31T13:07:08.653Z,100434.91
2018-05-31T13:09:36.158Z,100439.27
2018-05-31T13:12:03.655Z,100441.20
2018-05-31T13:14:31.171Z,100445.09
2018-05-31T13:16:58.685Z,100446.16
2018-05-31T13:19:26.194Z,100443.80
2018-05-31T13:21:53.711Z,100440.39
2018-05-31T13:24:21.211Z,100445.09
2018-05-31T13:26:48.765Z,100437.97
2018-05-31T13:29:16.536Z,100441.27
2018-05-31T13:31:44.191Z,100439.17
2018-05-31T13:34:11.812Z,100444.70
2018-05-31T13:36:39.826Z,100444.75
2018-05-31T13:39:07.691Z,100446.34
2018-05-31T13:41:35.255Z,100456.55
2018-05-31T13:44:02.877Z,100453.00
2018-05-31T13:46:30.631Z,100443.50
2018-05-31T13:48:58.165Z,100443.20
2018-05-31T13:51:25.708Z,100437.77
2018-05-31T13:53:53.315Z,100437.84
2018-05-31T13:56:20.836Z,100439.07
2018-05-31T13:58:48.365Z,100437.59
2018-05-31T14:01:15.889Z,100437.61
2018-05-31T14:03:43.844Z,100434.42
2018-05-31T14:06:11.395Z,100441.31
2018-05-31T14:08:38.940Z,100430.53
2018-05-31T14:11:06.470Z,100431.42
2018-05-31T14:13:34.232Z,100421.23
2018-05-31T14:16:01.735Z,100415.69
2018-05-31T14:18:29.268Z,100410.35
2018-05-31T14:20:57.389Z,100409.52
2018-05-31T14:23:24.927Z,100401.27
2018-05-31T14:25:52.501Z,100400.64
2018-05-31T14:28:20.046Z,100402.89
2018-05-31T14:30:47.979Z,100400.33
2018-05-31T14:33:15.935Z,100398.44
2018-05-31T14:35:43.474Z,100404.94
2018-05-31T14:38:11.032Z,100402.72
2018-05-31T14:40:38.749Z,100398.33
2018-05-31T14:43:06.554Z,100395.80
2018-05-31T14:45:34.342Z,100384.72
2018-05-31T14:48:01.905Z,100394.19
2018-05-31T14:50:29.567Z,100395.75
2018-05-31T14:52:57.120Z,100391.24
2018-05-31T14:55:24.655Z,100382.90
2018-05-31T14:57:52.554Z,100373.69
2018-05-31T15:00:21.848Z,100384.77
2018-05-31T15:02:49.614Z,100383.59
2018-05-31T15:05:17.271Z,100385.29
2018-05-31T15:07:44.831Z,100381.97
2018-05-31T15:10:12.395Z,100375.25
2018-05-31T15:12:40.348Z,100376.86
2018-05-31T15:15:08.383Z,100377.02
2018-05-31T15:17:35.968Z,100370.66
2018-05-31T15:20:03.621Z,100374.44
2018-05-31T15:22:31.668Z,100378.25
2018-05-31T15:24:59.521Z,100362.17
2018-05-31T15:27:27.697Z,100365.35
2018-05-31T15:29:55.385Z,100358.41
2018-05-31T15:32:23.358Z,100361.89
2018-05-31T15:34:51.291Z,100361.57
2018-05-31T15:37:19.310Z,100372.30
2018-05-31T15:39:46.961Z,100370.57
2018-05-31T15:42:14.481Z,100364.80
2018-05-31T15:44:43.024Z,100370.55
2018-05-31T15:47:10.874Z,100362.64
2018-05-31T15:49:38.722Z,100368.81
2018-05-31T15:52:08.685Z,100367.95
2018-05-31T15:54:36.247Z,100366.70
2018-05-31T15:57:03.764Z,100360.09
2018-05-31T15:59:31.304Z,100356.41
2018-05-31T16:01:59.080Z,100356.59
2018-05-31T16:04:26.657Z,100354.21
2018-05-31T16:06:54.187Z,100353.97
2018-05-31T16:09:21.710Z,100353.06
2018-05-31T16:11:49.862Z,100357.20
2018-05-31T16:14:17.415Z,100350.53
2018-05-31T16:16:44.984Z,100356.98
2018-05-31T16:19:12.722Z,100353.67
2018-05-31T16:21:40.237Z,100358.49
2018-05-31T16:24:07.776Z,100353.26
2018-05-31T16:26:35.417Z,100346.80
2018-05-31T16:29:03.000Z,100351.06
2018-05-31T16:31:30.927Z,100343.17
2018-05-31T16:33:58.454Z,100345.47
2018-05-31T16:36:25.999Z,100337.86
2018-05-31T16:38:53.547Z,100333.98
2018-05-31T16:41:21.070Z,100340.03
2018-05-31T16:43:48.575Z,100340.73
2018-05-31T16:46:16.123Z,100341.41
2018-05-31T16:48:43.753Z,100341.95
2018-05-31T16:51:11.307Z,100337.30
2018-05-31T16:53:38.820Z,100356.51
2018-05-31T16:56:06.398Z,100352.05
2018-05-31T16:58:33.959Z,100357.77
2018-05-31T17:01:01.475Z,100361.46
2018-05-31T17:03:29.169Z,100359.88
2018-05-31T17:05:56.886Z,100362.23
2018-05-31T17:08:24.389Z,100351.14
2018-05-31T17:10:51.945Z,100352.41
2018-05-31T17:13:19.590Z,100347.09
2018-05-31T17:15:47.214Z,100349.13
2018-05-31T17:18:14.804Z,100342.64
2018-05-31T17:20:42.362Z,100338.50
2018-05-31T17:23:10.030Z,100341.87
2018-05-31T17:25:37.627Z,100338.47
2018-05-31T17:28:05.532Z,100337.14
2018-05-31T17:30:33.047Z,100337.38
2018-05-31T17:33:01.063Z,100336.81
2018-05-31T17:35:29.685Z,100333.65
2018-05-31T17:37:57.255Z,100334.70
2018-05-31T17:40:24.894Z,100340.28
2018-05-31T17:42:52.411Z,100343.98
2018-05-31T17:45:20.106Z,100344.59
2018-05-31T17:47:47.692Z,100345.09
2018-05-31T17:50:15.391Z,100350.94
2018-05-31T17:52:43.401Z,100347.78
2018-05-31T17:55:10.982Z,100354.25
2018-05-31T17:57:38.525Z,100354.30
2018-05-31T18:00:06.752Z,100352.13
2018-05-31T18:02:34.773Z,100353.45
2018-05-31T18:05:02.346Z,100345.61
2018-05-31T18:07:30.201Z,100349.61
2018-05-31T18:09:58.318Z,100344.45
2018-05-31T18:12:26.064Z,100348.87
2018-05-31T18:14:53.991Z,100342.16
2018-05-31T18:17:21.510Z,100342.30
2018-05-31T18:19:49.288Z,100339.06
2018-05-31T18:22:16.863Z,100332.80
2018-05-31T18:24:44.415Z,100336.59
2018-05-31T18:27:12.280Z,100335.95
2018-05-31T18:29:40.018Z,100328.52
2018-05-31T18:32:07.575Z,100330.09
2018-05-31T18:34:35.112Z,100325.21
2018-05-31T18:37:02.656Z,100328.38
2018-05-31T18:39:30.172Z,100334.17
2018-05-31T18:41:58.000Z,100336.13
2018-05-31T18:44:25.534Z,100338.63
2018-05-31T18:46:53.119Z,100337.52
2018-05-31T18:49:21.102Z,100336.69
2018-05-31T18:51:49.035Z,100337.57
2018-05-31T18:54:16.581Z,100344.01
2018-05-31T18:56:44.158Z,100350.47
2018-05-31T18:59:11.909Z,100356.63
2018-05-31T19:01:39.774Z,100365.19
2018-05-31T19:04:07.259Z,100364.58
2018-05-31T19:06:34.840Z,100368.86
2018-05-31T19:09:02.705Z,100380.53
2018-05-31T19:11:30.222Z,100381.80
2018-05-31T19:13:58.674Z,100393.14
2018-05-31T19:16:26.170Z,100392.98
2018-05-31T19:18:59.115Z,100400.30
2018-05-31T19:21:26.727Z,100401.55
2018-05-31T19:23:54.513Z,100400.92
2018-05-31T19:26:22.289Z,100407.98
2018-05-31T19:28:49.805Z,100408.55
2018-05-31T19:31:17.348Z,100415.02
2018-05-31T19:33:44.859Z,100419.85
2018-05-31T19:36:17.905Z,100418.45
2018-05-31T19:38:45.918Z,100422.22
2018-05-31T19:41:13.964Z,100423.59
2018-05-31T20:19:03.799Z,100421.81
2018-05-31T20:21:31.309Z,100418.00
2018-05-31T20:23:58.807Z,100421.69
2018-05-31T20:26:26.358Z,100416.83
2018-05-31T20:28:53.855Z,100418.47
2018-05-31T20:31:21.396Z,100430.20
2018-05-31T20:33:48.910Z,100442.11
2018-05-31T20:36:16.396Z,100439.66
2018-05-31T20:38:45.899Z,100429.91
2018-05-31T20:41:13.934Z,100427.63
2018-05-31T20:43:41.439Z,100432.00
2018-05-31T20:46:09.358Z,100426.70
2018-05-31T20:48:36.851Z,100421.42
2018-05-31T20:51:04.391Z,100417.73
2018-05-31T20:53:32.422Z,100428.84
2018-05-31T20:55:59.955Z,100436.41
2018-05-31T20:58:27.457Z,100429.97
2018-05-31T21:00:54.959Z,100430.09
2018-05-31T21:03:32.118Z,100424.53
2018-05-31T21:06:04.795Z,100425.03
2018-05-31T21:08:37.171Z,100424.83
2018-05-31T21:11:05.298Z,100424.18
2018-05-31T21:13:32.854Z,100424.52
2018-05-31T21:16:00.448Z,100419.55
2018-05-31T21:18:27.973Z,100411.28
2018-05-31T21:20:55.580Z,100404.73
2018-05-31T21:23:23.615Z,100402.34
2018-05-31T21:25:51.133Z,100409.61
2018-05-31T21:28:18.659Z,100409.28
2018-05-31T21:30:46.450Z,100406.80
2018-05-31T21:33:14.212Z,100409.75
2018-05-31T21:35:42.058Z,100406.12
2018-05-31T21:38:09.632Z,100395.66
2018-05-31T21:40:37.122Z,100402.89
2018-05-31T21:43:04.755Z,100406.09
2018-05-31T21:45:32.354Z,100404.69
2018-05-31T21:47:59.883Z,100418.97
2018-05-31T21:50:27.380Z,100427.16
2018-05-31T21:52:54.929Z,100433.41
2018-05-31T21:55:22.451Z,100432.78
2018-05-31T21:57:49.947Z,100445.47
2018-05-31T22:03:16.587Z,100442.06
2018-05-31T22:05:44.135Z,100450.68
2018-05-31T22:08:11.620Z,100446.73
2018-05-31T22:10:39.097Z,100445.64
2018-05-31T22:13:06.623Z,100453.91
2018-05-31T22:15:34.133Z,100451.53
2018-05-31T22:18:01.641Z,100445.49
2018-05-31T22:20:29.157Z,100437.17
2018-05-31T22:22:56.656Z,100438.66
2018-05-31T22:25:24.165Z,100430.27
2018-05-31T22:27:51.709Z,100430.34
2018-05-31T22:30:19.222Z,100427.64
2018-05-31T22:32:46.761Z,100424.97
2018-05-31T22:35:14.491Z,100424.16
2018-05-31T22:37:42.022Z,100421.16
2018-05-31T22:40:09.527Z,100423.60
2018-05-31T22:42:37.019Z,100420.84
2018-05-31T22:45:04.519Z,100420.05
2018-05-31T22:47:32.012Z,100420.17
2018-05-31T22:49:59.535Z,100416.70
2018-05-31T22:52:27.054Z,100417.56
2018-05-31T22:54:55.499Z,100416.92
2018-05-31T22:57:23.022Z,100415.39
2018-05-31T22:59:50.529Z,100413.73
2018-05-31T23:02:18.057Z,100409.30
2018-05-31T23:04:45.565Z,100403.37
2018-05-31T23:07:13.071Z,100402.29
2018-05-31T23:09:40.648Z,100402.65
2018-05-31T23:12:08.152Z,100400.59
2018-05-31T23:14:35.677Z,100396.36
2018-05-31T23:17:03.218Z,100393.56
2018-05-31T23:19:30.719Z,100394.09
2018-05-31T23:21:58.225Z,100394.31
2018-05-31T23:24:25.799Z,100393.36
2018-05-31T23:26:53.309Z,100392.47
2018-05-31T23:29:20.852Z,100390.19
2018-05-31T23:31:48.375Z,100387.11
2018-05-31T23:34:15.874Z,100383.39
2018-05-31T23:36:43.429Z,100381.45
2018-05-31T23:39:10.965Z,100378.81
2018-05-31T23:41:38.519Z,100375.98
2018-05-31T23:44:06.046Z,100372.20
2018-05-31T23:46:33.585Z,100371.97
2018-05-31T23:49:01.151Z,100377.77
2018-05-31T23:51:28.673Z,100370.41
2018-05-31T23:53:56.166Z,100370.09
2018-05-31T23:56:23.706Z,100361.45
2018-05-31T23:58:51.228Z,100358.46
